Time;durP1;ratioP1;P1;durP2;ratioP2;P2;SDS_P1;SDS_P2;PMS_P1;PMS_P2;Temp;Humidity;BMP_temperature;BMP_pressure;BME280_temperature;BME280_humidity;BME280_pressure;Samples;Min_cycle;Max_cycle;Signal;HPM_P1;HPM_P2
2023/06/15 00:00:34;;;;;;;4.85;4.20;;;14.50;50.90;;;;;;5017866;28;20568;-84
2023/06/15 00:03:01;;;;;;;9.57;4.45;;;14.50;50.90;;;;;;5009838;28;20205;-86
2023/06/15 00:05:28;;;;;;;5.15;4.13;;;14.40;51.10;;;;;;5015332;28;20199;-87
2023/06/15 00:07:55;;;;;;;7.40;4.28;;;14.30;53.60;;;;;;5010453;28;20201;-87
2023/06/15 00:10:22;;;;;;;6.13;4.05;;;14.30;55.00;;;;;;5015760;28;20203;-87
2023/06/15 00:12:50;;;;;;;5.00;3.70;;;14.30;55.00;;;;;;5022861;28;20649;-86
2023/06/15 00:15:17;;;;;;;4.60;3.97;;;14.20;54.60;;;;;;5008755;28;20214;-87
2023/06/15 00:17:44;;;;;;;7.20;4.60;;;14.20;55.10;;;;;;5011133;28;20314;-86
2023/06/15 00:20:13;;;;;;;5.85;4.47;;;14.10;56.00;;;;;;5007722;28;20191;-85
2023/06/15 00:22:45;;;;;;;5.38;4.60;;;14.10;56.80;;;;;;5011922;28;20286;-85
2023/06/15 00:25:12;;;;;;;7.88;4.20;;;14.20;56.80;;;;;;5014311;28;20195;-87
2023/06/15 00:27:39;;;;;;;6.72;4.40;;;14.30;56.80;;;;;;5003680;28;20621;-87
2023/06/15 00:30:10;;;;;;;5.43;3.78;;;14.30;56.90;;;;;;5027175;28;20656;-87
2023/06/15 00:32:37;;;;;;;4.97;4.00;;;14.30;57.20;;;;;;5017154;28;20196;-84
2023/06/15 00:35:04;;;;;;;9.60;4.13;;;14.20;57.40;;;;;;5014855;28;20269;-87
2023/06/15 00:37:31;;;;;;;4.75;4.32;;;14.10;56.90;;;;;;5014474;28;20203;-86
2023/06/15 00:39:58;;;;;;;4.80;4.07;;;14.00;57.70;;;;;;4997382;28;20211;-87
2023/06/15 00:42:25;;;;;;;5.13;4.10;;;13.90;60.30;;;;;;5007359;28;20559;-86
2023/06/15 00:44:52;;;;;;;6.65;4.65;;;13.90;61.70;;;;;;5014513;28;20211;-86
2023/06/15 00:47:22;;;;;;;6.32;4.85;;;13.80;61.60;;;;;;5016069;28;20241;-87
2023/06/15 00:49:49;;;;;;;6.38;4.50;;;13.70;62.00;;;;;;5021549;28;20199;-87
2023/06/15 00:52:18;;;;;;;6.55;4.53;;;13.80;62.00;;;;;;4994019;28;20257;-85
2023/06/15 00:54:45;;;;;;;6.10;4.55;;;13.80;61.80;;;;;;5013959;28;20290;-84
2023/06/15 00:57:12;;;;;;;5.13;4.45;;;13.80;63.90;;;;;;5024571;28;20563;-88
2023/06/15 00:59:39;;;;;;;7.88;4.47;;;13.90;64.00;;;;;;4994536;28;20199;-86
2023/06/15 01:02:12;;;;;;;6.97;4.22;;;14.00;63.80;;;;;;5016167;28;20195;-88
2023/06/15 01:04:41;;;;;;;5.75;4.03;;;14.00;63.50;;;;;;5017334;28;20648;-86
2023/06/15 01:07:11;;;;;;;7.53;4.97;;;14.00;63.20;;;;;;5013416;28;20223;-87
2023/06/15 01:09:41;;;;;;;6.15;5.00;;;13.90;63.50;;;;;;5005374;28;20200;-87
2023/06/15 01:12:11;;;;;;;5.00;4.50;;;14.00;64.10;;;;;;5002440;28;20641;-87
2023/06/15 01:14:38;;;;;;;5.80;4.63;;;14.10;62.90;;;;;;5015266;28;20615;-85
2023/06/15 01:17:09;;;;;;;7.40;4.68;;;14.20;63.80;;;;;;5015491;28;20210;-88
2023/06/15 01:19:53;;;;;;;6.57;4.05;;;14.20;63.80;;;;;;5012235;28;20211;-88
2023/06/15 01:22:24;;;;;;;4.72;4.20;;;14.20;63.10;;;;;;5015123;28;20227;-88
2023/06/15 01:25:03;;;;;;;5.15;4.65;;;14.10;64.10;;;;;;5013963;28;20200;-87
2023/06/15 01:27:34;;;;;;;4.72;3.92;;;14.10;65.80;;;;;;5018130;28;20824;-86
2023/06/15 01:30:04;;;;;;;6.05;4.50;;;14.10;66.10;;;;;;5017504;28;20200;-87
2023/06/15 01:32:32;;;;;;;7.53;4.53;;;14.10;66.40;;;;;;5019276;28;20195;-88
2023/06/15 01:35:00;;;;;;;5.97;4.45;;;14.10;66.60;;;;;;5012667;28;20191;-87
2023/06/15 01:37:27;;;;;;;4.70;4.10;;;14.10;67.80;;;;;;5014703;28;20203;-86
2023/06/15 01:39:55;;;;;;;5.18;4.50;;;14.00;69.20;;;;;;5014895;28;20195;-84
2023/06/15 01:42:22;;;;;;;6.90;4.50;;;14.00;69.20;;;;;;5027024;28;20198;-87
2023/06/15 01:44:52;;;;;;;5.28;4.03;;;13.90;71.50;;;;;;5019654;28;20204;-88
2023/06/15 01:47:19;;;;;;;6.15;4.72;;;13.90;71.20;;;;;;5014661;28;20226;-85
2023/06/15 01:49:47;;;;;;;7.40;4.80;;;13.80;70.70;;;;;;5002487;28;20202;-85
2023/06/15 01:52:14;;;;;;;5.90;4.80;;;13.70;72.30;;;;;;5016202;28;20203;-86
2023/06/15 01:54:41;;;;;;;5.00;4.28;;;13.70;74.30;;;;;;5011521;28;20199;-85
2023/06/15 01:57:09;;;;;;;6.72;4.32;;;13.80;75.00;;;;;;5011196;28;20207;-89
2023/06/15 01:59:36;;;;;;;6.10;4.70;;;13.80;75.00;;;;;;5017160;28;20207;-84
2023/06/15 02:02:05;;;;;;;7.15;4.60;;;13.80;75.30;;;;;;4995608;28;20274;-88
2023/06/15 02:04:32;;;;;;;6.43;4.60;;;13.70;76.40;;;;;;5012701;28;20199;-86
2023/06/15 02:06:59;;;;;;;7.97;4.97;;;13.60;76.30;;;;;;5012225;28;20846;-86
2023/06/15 02:09:26;;;;;;;4.95;4.40;;;13.60;76.30;;;;;;5019207;28;20723;-86
2023/06/15 02:11:53;;;;;;;4.95;4.35;;;13.60;76.30;;;;;;4968886;28;20208;-87
2023/06/15 02:14:23;;;;;;;6.43;4.68;;;13.60;77.30;;;;;;5012485;28;20578;-87
2023/06/15 02:16:49;;;;;;;5.63;4.57;;;13.60;77.70;;;;;;5023042;28;20639;-85
2023/06/15 02:19:20;;;;;;;5.80;4.82;;;13.50;77.30;;;;;;5005681;28;20242;-88
2023/06/15 02:21:48;;;;;;;7.22;5.03;;;13.30;78.30;;;;;;5008642;28;20199;-88
2023/06/15 02:24:16;;;;;;;6.18;5.03;;;13.30;79.70;;;;;;5020454;28;20203;-85
2023/06/15 02:26:43;;;;;;;7.47;4.63;;;13.30;80.60;;;;;;5014783;28;20226;-85
2023/06/15 02:29:10;;;;;;;7.05;5.10;;;13.40;80.90;;;;;;4994735;28;20207;-86
2023/06/15 02:31:37;;;;;;;7.80;5.28;;;13.40;81.30;;;;;;5011748;28;20203;-87
2023/06/15 02:34:04;;;;;;;5.97;5.03;;;13.30;80.50;;;;;;5009769;28;20249;-87
2023/06/15 02:36:34;;;;;;;5.28;4.70;;;13.30;81.70;;;;;;5012728;28;20253;-89
2023/06/15 02:39:02;;;;;;;11.07;4.90;;;13.30;81.10;;;;;;5006761;28;20191;-87
2023/06/15 02:41:29;;;;;;;6.97;4.85;;;13.30;81.60;;;;;;5012935;28;20199;-88
2023/06/15 02:43:56;;;;;;;6.38;5.15;;;13.30;82.20;;;;;;5014738;28;20835;-87
2023/06/15 02:46:23;;;;;;;5.20;4.70;;;13.30;82.80;;;;;;5014414;28;20562;-87
2023/06/15 02:48:51;;;;;;;6.07;4.88;;;13.30;82.40;;;;;;5021840;28;20207;-87
2023/06/15 02:51:19;;;;;;;7.45;5.03;;;13.40;83.10;;;;;;5010692;28;20208;-87
2023/06/15 02:53:47;;;;;;;6.15;4.93;;;13.40;83.00;;;;;;5015363;28;20207;-89
2023/06/15 02:56:18;;;;;;;7.13;5.30;;;13.40;81.50;;;;;;5019337;28;20610;-87
2023/06/15 02:58:47;;;;;;;5.53;4.90;;;13.30;82.30;;;;;;5014309;28;20257;-86
2023/06/15 03:01:15;;;;;;;6.45;4.88;;;13.30;83.00;;;;;;5013463;28;20204;-87
2023/06/15 03:03:42;;;;;;;6.05;5.07;;;13.40;82.60;;;;;;5013423;28;20265;-87
2023/06/15 03:06:09;;;;;;;5.72;5.03;;;13.50;82.70;;;;;;5016047;28;20202;-87
2023/06/15 03:08:36;;;;;;;7.25;5.13;;;13.50;82.20;;;;;;5017000;28;20215;-87
2023/06/15 03:11:05;;;;;;;5.25;4.75;;;13.50;81.80;;;;;;5004364;28;20201;-87
2023/06/15 03:13:31;;;;;;;6.00;4.88;;;13.50;81.90;;;;;;5016158;28;20212;-88
2023/06/15 03:16:00;;;;;;;5.78;5.18;;;13.50;82.20;;;;;;5014374;28;20222;-87
2023/06/15 03:18:28;;;;;;;5.80;5.22;;;13.40;82.80;;;;;;5013401;28;20625;-87
2023/06/15 03:20:57;;;;;;;5.78;5.20;;;13.50;83.00;;;;;;5009211;28;20256;-83
2023/06/15 03:23:24;;;;;;;7.32;5.03;;;13.50;82.30;;;;;;5004830;28;20203;-87
2023/06/15 03:25:51;;;;;;;6.22;5.15;;;13.50;81.90;;;;;;5010882;28;20201;-87
2023/06/15 03:28:23;;;;;;;7.35;5.13;;;13.40;82.20;;;;;;5010660;28;20227;-87
2023/06/15 03:30:52;;;;;;;5.97;5.38;;;13.40;82.80;;;;;;5012051;28;20208;-87
2023/06/15 03:33:21;;;;;;;6.53;5.45;;;13.50;82.80;;;;;;5012740;28;20199;-87
2023/06/15 03:35:49;;;;;;;9.65;5.32;;;13.60;82.60;;;;;;5012437;28;20237;-88
2023/06/15 03:38:16;;;;;;;7.57;5.55;;;13.60;81.80;;;;;;5014357;28;20207;-88
2023/06/15 03:40:43;;;;;;;7.55;4.72;;;13.60;81.70;;;;;;5014997;28;20205;-83
2023/06/15 03:43:11;;;;;;;6.22;5.20;;;13.60;81.90;;;;;;5014895;28;20199;-88
2023/06/15 03:45:40;;;;;;;7.97;5.35;;;13.70;81.70;;;;;;5012953;28;20191;-88
2023/06/15 03:48:07;;;;;;;6.85;5.25;;;13.70;81.00;;;;;;5008948;28;20219;-87
2023/06/15 03:50:34;;;;;;;5.80;5.25;;;13.70;80.60;;;;;;5009087;28;20203;-87
2023/06/15 03:53:01;;;;;;;7.30;5.50;;;13.70;80.50;;;;;;5013798;28;20286;-87
2023/06/15 03:55:29;;;;;;;8.45;5.10;;;13.80;80.70;;;;;;5010634;28;20408;-88
2023/06/15 03:57:56;;;;;;;7.25;5.10;;;14.00;78.90;;;;;;5012658;28;20301;-87
2023/06/15 04:00:23;;;;;;;6.00;5.00;;;14.30;77.80;;;;;;5006972;28;20214;-86
2023/06/15 04:02:52;;;;;;;7.22;5.35;;;14.40;76.90;;;;;;5009941;28;20211;-85
2023/06/15 04:05:20;;;;;;;7.03;4.93;;;14.50;76.90;;;;;;5005972;28;20202;-87
2023/06/15 04:07:47;;;;;;;10.20;6.72;;;14.60;75.90;;;;;;4999427;28;20222;-83
2023/06/15 04:10:14;;;;;;;20.45;16.30;;;14.50;76.90;;;;;;5005274;28;20204;-86
2023/06/15 04:12:41;;;;;;;10.10;7.65;;;14.60;77.00;;;;;;5004908;28;20222;-86
2023/06/15 04:15:08;;;;;;;10.68;8.57;;;14.60;77.00;;;;;;5002225;28;20210;-87
2023/06/15 04:17:37;;;;;;;8.95;7.80;;;14.60;77.00;;;;;;5009419;28;20242;-88
2023/06/15 04:20:06;;;;;;;7.15;6.45;;;14.60;77.00;;;;;;5015660;28;20195;-87
2023/06/15 04:22:33;;;;;;;9.23;6.00;;;14.70;77.00;;;;;;5012403;28;20201;-86
2023/06/15 04:25:00;;;;;;;7.18;5.22;;;14.90;75.10;;;;;;5008334;28;20667;-88
2023/06/15 04:27:27;;;;;;;8.38;5.88;;;14.90;70.60;;;;;;5010193;28;20227;-84
2023/06/15 04:29:54;;;;;;;5.80;5.28;;;14.90;70.40;;;;;;5014165;28;20199;-86
2023/06/15 04:32:25;;;;;;;6.95;5.28;;;14.80;70.30;;;;;;5015959;28;20253;-85
2023/06/15 04:34:52;;;;;;;7.40;5.60;;;14.80;69.50;;;;;;5008070;28;20286;-82
2023/06/15 04:37:23;;;;;;;9.07;5.45;;;14.70;67.90;;;;;;5017699;28;20209;-86
2023/06/15 04:39:50;;;;;;;5.68;4.90;;;14.60;71.50;;;;;;5017003;28;20196;-86
2023/06/15 04:42:18;;;;;;;9.02;5.28;;;14.50;73.50;;;;;;5010718;28;20273;-86
2023/06/15 04:44:46;;;;;;;13.07;5.78;;;14.60;75.20;;;;;;5011482;28;20195;-87
2023/06/15 04:47:13;;;;;;;7.38;5.35;;;14.70;73.20;;;;;;5007113;28;20227;-85
2023/06/15 04:49:42;;;;;;;7.85;5.80;;;14.80;70.10;;;;;;5010129;28;20208;-84
2023/06/15 04:52:09;;;;;;;7.47;6.05;;;14.90;68.30;;;;;;5011944;28;20551;-87
2023/06/15 04:54:38;;;;;;;7.43;5.03;;;14.90;64.70;;;;;;5003894;28;20199;-87
2023/06/15 04:57:08;;;;;;;7.22;5.57;;;14.80;64.80;;;;;;5011181;28;20191;-85
2023/06/15 04:59:38;;;;;;;7.60;5.35;;;14.80;66.80;;;;;;5010057;28;20187;-87
2023/06/15 05:02:06;;;;;;;8.82;5.82;;;14.90;67.60;;;;;;5000762;28;20724;-86
2023/06/15 05:04:33;;;;;;;10.02;5.75;;;14.90;66.30;;;;;;5005329;28;20203;-84
2023/06/15 05:07:00;;;;;;;8.02;5.90;;;14.90;66.10;;;;;;5001144;28;20207;-87
2023/06/15 05:09:27;;;;;;;9.93;5.82;;;14.90;63.80;;;;;;5012476;28;20200;-87
2023/06/15 05:11:56;;;;;;;9.25;5.75;;;14.90;67.00;;;;;;5015166;28;20195;-85
2023/06/15 05:14:26;;;;;;;8.85;5.80;;;14.80;66.40;;;;;;5016540;28;20209;-86
2023/06/15 05:16:53;;;;;;;8.45;5.93;;;14.80;67.00;;;;;;5010805;28;20222;-86
2023/06/15 05:19:20;;;;;;;8.70;5.40;;;14.80;67.10;;;;;;5010726;28;20238;-85
2023/06/15 05:21:47;;;;;;;7.90;5.72;;;14.80;65.50;;;;;;5011722;28;20668;-84
2023/06/15 05:24:14;;;;;;;6.93;5.47;;;14.80;66.10;;;;;;5017313;28;20203;-90
2023/06/15 05:26:41;;;;;;;8.38;5.72;;;14.90;68.20;;;;;;5010945;28;20214;-86
2023/06/15 05:29:09;;;;;;;9.60;6.25;;;15.00;64.50;;;;;;5004066;28;20580;-88
2023/06/15 05:31:36;;;;;;;8.73;6.10;;;15.00;63.10;;;;;;5011906;28;20211;-87
2023/06/15 05:34:03;;;;;;;6.53;5.53;;;15.00;64.10;;;;;;5011864;28;20208;-90
2023/06/15 05:36:33;;;;;;;11.73;6.10;;;14.90;67.50;;;;;;5014109;28;20286;-88
2023/06/15 05:39:00;;;;;;;9.00;6.30;;;15.10;66.90;;;;;;5013775;28;20220;-85
2023/06/15 05:41:27;;;;;;;11.15;5.70;;;15.10;62.90;;;;;;5000542;28;20199;-87
2023/06/15 05:43:54;;;;;;;8.35;5.72;;;15.10;62.10;;;;;;5010889;28;20287;-88
2023/06/15 05:46:23;;;;;;;9.30;6.18;;;15.10;60.30;;;;;;5011882;28;20211;-86
2023/06/15 05:48:50;;;;;;;9.23;5.80;;;15.20;63.50;;;;;;5010740;28;20305;-89
2023/06/15 05:51:16;;;;;;;8.23;5.97;;;15.30;64.50;;;;;;5010174;28;20672;-89
2023/06/15 05:53:43;;;;;;;6.20;5.60;;;15.50;62.60;;;;;;5006163;28;20195;-87
2023/06/15 05:56:11;;;;;;;7.88;5.60;;;15.60;61.30;;;;;;5007667;28;20209;-88
2023/06/15 05:58:38;;;;;;;7.20;5.80;;;15.80;57.00;;;;;;4998711;28;20202;-85
2023/06/15 06:01:05;;;;;;;9.05;5.82;;;15.80;57.40;;;;;;5019723;28;20203;-87
2023/06/15 06:03:35;;;;;;;8.30;5.20;;;16.00;57.70;;;;;;5017006;28;20203;-87
2023/06/15 06:06:01;;;;;;;9.15;5.95;;;16.10;54.70;;;;;;5010581;28;20563;-88
2023/06/15 06:08:29;;;;;;;8.05;5.28;;;16.40;52.60;;;;;;5015736;28;20669;-88
2023/06/15 06:10:55;;;;;;;15.30;5.70;;;16.60;52.80;;;;;;5014949;28;20253;-89
2023/06/15 06:13:22;;;;;;;6.38;5.22;;;16.90;52.20;;;;;;5016023;28;20226;-88
2023/06/15 06:15:49;;;;;;;7.70;5.88;;;16.90;51.80;;;;;;5016178;28;20290;-85
2023/06/15 06:18:24;;;;;;;11.98;5.82;;;16.70;43.20;;;;;;5040495;23;20238;-85
2023/06/15 06:20:53;;;;;;;7.85;5.78;;;16.80;45.40;;;;;;5028935;28;20201;-88
2023/06/15 06:23:19;;;;;;;9.30;5.70;;;16.90;47.70;;;;;;5022118;28;20203;-87
2023/06/15 06:25:46;;;;;;;8.88;5.82;;;17.10;47.00;;;;;;5038841;28;20982;-86
2023/06/15 06:28:13;;;;;;;7.68;5.45;;;17.40;42.20;;;;;;5034251;28;20709;-85
2023/06/15 06:30:40;;;;;;;8.30;5.47;;;17.50;42.00;;;;;;5029258;28;20234;-91
2023/06/15 06:33:07;;;;;;;8.15;5.63;;;17.80;41.80;;;;;;5029155;28;20277;-84
2023/06/15 06:35:34;;;;;;;12.00;6.13;;;18.00;39.10;;;;;;5033366;28;20208;-87
2023/06/15 06:38:02;;;;;;;8.45;5.82;;;18.00;36.70;;;;;;5031207;28;20198;-87
2023/06/15 06:40:30;;;;;;;9.10;5.90;;;18.00;36.70;;;;;;5031493;28;20203;-83
2023/06/15 06:43:05;;;;;;;8.65;5.95;;;18.10;37.80;;;;;;5029132;28;20197;-83
2023/06/15 06:45:32;;;;;;;10.75;5.85;;;17.90;37.70;;;;;;5030538;28;20598;-83
2023/06/15 06:47:59;;;;;;;7.60;6.03;;;18.00;36.70;;;;;;5028679;28;20732;-86
2023/06/15 06:50:26;;;;;;;7.05;5.75;;;18.00;36.60;;;;;;5039512;28;20738;-87
2023/06/15 06:52:53;;;;;;;6.63;5.68;;;18.00;35.80;;;;;;5031478;28;20632;-88
2023/06/15 06:55:21;;;;;;;9.88;5.90;;;17.90;37.40;;;;;;5029063;28;21358;-83
2023/06/15 06:57:48;;;;;;;7.38;5.60;;;18.10;36.70;;;;;;5029034;28;20202;-88
2023/06/15 07:00:16;;;;;;;7.70;5.50;;;18.40;34.20;;;;;;5033913;28;20203;-85
2023/06/15 07:02:43;;;;;;;7.40;5.22;;;18.70;34.10;;;;;;5033651;28;20277;-86
2023/06/15 07:05:10;;;;;;;6.30;5.07;;;18.90;33.90;;;;;;5031472;28;20602;-83
2023/06/15 07:07:38;;;;;;;6.15;5.00;;;19.20;31.40;;;;;;5031008;28;20195;-86
2023/06/15 07:10:06;;;;;;;8.63;5.43;;;19.30;31.20;;;;;;5029607;28;20587;-86
2023/06/15 07:12:34;;;;;;;8.73;5.35;;;19.40;28.30;;;;;;5030586;28;20199;-86
2023/06/15 07:15:01;;;;;;;5.72;5.10;;;19.50;30.50;;;;;;5030214;28;20252;-86
2023/06/15 07:17:28;;;;;;;7.78;5.68;;;19.60;31.70;;;;;;5032838;28;20237;-86
2023/06/15 07:19:55;;;;;;;7.07;5.47;;;19.50;29.50;;;;;;5030638;28;20207;-87
2023/06/15 07:22:23;;;;;;;9.07;5.32;;;19.50;28.30;;;;;;5034164;28;20198;-83
2023/06/15 07:24:50;;;;;;;7.00;5.50;;;19.60;28.20;;;;;;5031829;28;20248;-86
2023/06/15 07:27:18;;;;;;;7.28;4.82;;;19.90;28.40;;;;;;5041856;28;20202;-85
2023/06/15 07:29:47;;;;;;;6.32;5.07;;;19.90;27.50;;;;;;5034647;28;20218;-88
2023/06/15 07:32:14;;;;;;;6.95;5.60;;;19.80;28.80;;;;;;5016274;28;20209;-86
2023/06/15 07:34:42;;;;;;;5.95;4.80;;;19.50;29.00;;;;;;5031697;28;20202;-87
2023/06/15 07:37:08;;;;;;;8.30;5.32;;;19.40;28.60;;;;;;5035790;28;20199;-85
2023/06/15 07:39:36;;;;;;;8.10;4.72;;;19.50;27.70;;;;;;5045244;28;21036;-88
2023/06/15 07:42:03;;;;;;;10.07;5.40;;;19.60;28.00;;;;;;5032020;28;20199;-85
2023/06/15 07:44:30;;;;;;;6.53;5.03;;;19.60;28.70;;;;;;5044518;28;20206;-86
2023/06/15 07:46:59;;;;;;;7.05;5.25;;;19.70;29.40;;;;;;5028820;28;20250;-86
2023/06/15 07:49:25;;;;;;;6.07;4.60;;;19.90;28.00;;;;;;5035576;28;20225;-85
2023/06/15 07:51:52;;;;;;;6.30;4.70;;;20.10;25.30;;;;;;5035285;28;20203;-86
2023/06/15 07:54:19;;;;;;;9.50;4.95;;;20.00;24.90;;;;;;5023789;28;20206;-89
2023/06/15 07:56:46;;;;;;;5.45;4.78;;;20.20;24.90;;;;;;5028952;28;20223;-85
2023/06/15 07:59:13;;;;;;;7.07;4.90;;;20.50;24.30;;;;;;5028448;28;20652;-85
2023/06/15 08:01:40;;;;;;;5.78;4.15;;;20.70;23.60;;;;;;5029149;28;20198;-84
2023/06/15 08:04:10;;;;;;;4.65;4.18;;;20.90;21.00;;;;;;5032421;28;20203;-86
2023/06/15 08:06:37;;;;;;;5.35;4.20;;;21.10;19.70;;;;;;5032643;28;20194;-89
2023/06/15 08:09:04;;;;;;;6.45;4.20;;;21.20;19.30;;;;;;5034932;28;20241;-84
2023/06/15 08:11:31;;;;;;;4.65;3.90;;;21.10;19.20;;;;;;5036464;28;20209;-87
2023/06/15 08:13:58;;;;;;;9.30;4.20;;;20.90;19.90;;;;;;5036696;28;20214;-85
2023/06/15 08:16:25;;;;;;;4.13;3.72;;;21.00;21.10;;;;;;5030634;28;20199;-92
2023/06/15 08:18:52;;;;;;;6.35;4.20;;;21.80;20.60;;;;;;5034596;28;20230;-85
2023/06/15 08:21:20;;;;;;;7.63;4.70;;;23.90;17.80;;;;;;5034074;28;20232;-84
2023/06/15 08:23:47;;;;;;;6.45;5.07;;;25.10;14.20;;;;;;5033300;28;20205;-88
2023/06/15 08:26:14;;;;;;;5.20;4.70;;;26.10;12.80;;;;;;5032845;28;20198;-87
2023/06/15 08:28:40;;;;;;;5.10;4.20;;;26.40;12.40;;;;;;5031720;28;20214;-83
2023/06/15 08:31:07;;;;;;;9.13;4.63;;;28.00;9.40;;;;;;5037029;28;20190;-88
2023/06/15 08:33:35;;;;;;;6.32;4.47;;;28.50;8.60;;;;;;5037775;28;20221;-83
2023/06/15 08:36:02;;;;;;;7.15;4.90;;;28.80;8.60;;;;;;5040294;28;20244;-86
2023/06/15 08:38:30;;;;;;;6.10;4.80;;;28.70;7.70;;;;;;5034238;28;20206;-90
2023/06/15 08:40:57;;;;;;;5.65;4.97;;;28.60;9.30;;;;;;5035348;28;20288;-87
2023/06/15 08:43:26;;;;;;;7.68;5.00;;;28.40;8.90;;;;;;5042091;28;20248;-84
2023/06/15 08:45:57;;;;;;;7.47;5.15;;;28.60;7.80;;;;;;5035178;28;20216;-86
2023/06/15 08:48:24;;;;;;;5.90;5.28;;;28.90;7.80;;;;;;5033500;28;20194;-87
2023/06/15 08:50:52;;;;;;;5.70;5.18;;;30.20;5.60;;;;;;5034677;28;20217;-86
2023/06/15 08:53:22;;;;;;;5.03;4.60;;;30.30;5.00;;;;;;5034585;28;20206;-83
2023/06/15 08:55:50;;;;;;;7.68;4.80;;;30.40;5.20;;;;;;5031965;28;20284;-87
2023/06/15 08:58:17;;;;;;;10.93;5.45;;;30.70;4.80;;;;;;5041822;28;20202;-87
2023/06/15 09:00:44;;;;;;;8.75;4.72;;;30.40;5.00;;;;;;5037874;28;20631;-89
2023/06/15 09:06:41;;;;;;;6.65;4.88;;;30.00;5.40;;;;;;5036886;28;20182;-88
2023/06/15 09:09:12;;;;;;;4.72;4.30;;;30.30;4.20;;;;;;5035408;28;20222;-87
2023/06/15 09:11:41;;;;;;;6.05;4.82;;;30.60;2.80;;;;;;5037098;28;20552;-90
2023/06/15 09:14:09;;;;;;;5.05;4.22;;;29.70;3.70;;;;;;5036445;28;20218;-89
2023/06/15 09:22:08;;;;;;;5.57;4.40;;;29.70;5.30;;;;;;5034859;28;20221;-90
2023/06/15 09:24:39;;;;;;;5.18;4.35;;;30.20;3.40;;;;;;5002969;28;20194;-91
2023/06/15 09:27:29;;;;;;;6.35;4.25;;;31.10;3.30;;;;;;4995655;28;20249;-89
2023/06/15 09:30:33;;;;;;;5.25;4.13;;;31.70;1.70;;;;;;5013123;28;20591;-89
2023/06/15 09:33:44;;;;;;;4.63;4.22;;;31.90;1.40;;;;;;5016697;28;20572;-90
2023/06/15 09:36:20;;;;;;;8.18;5.35;;;30.90;2.90;;;;;;5012721;28;20199;-87
2023/06/15 09:38:48;;;;;;;5.60;4.93;;;30.00;4.00;;;;;;5014368;28;20202;-84
2023/06/15 09:41:15;;;;;;;6.68;5.35;;;29.30;3.70;;;;;;5016447;28;20245;-86
2023/06/15 09:43:43;;;;;;;8.90;4.82;;;29.70;4.60;;;;;;5014903;28;20199;-87
2023/06/15 09:46:11;;;;;;;7.03;5.90;;;29.40;6.70;;;;;;5001712;28;20674;-85
2023/06/15 09:48:38;;;;;;;7.85;5.57;;;29.10;6.60;;;;;;5016141;28;20210;-84
2023/06/15 09:51:05;;;;;;;10.02;5.43;;;28.30;8.40;;;;;;5012688;28;20219;-87
2023/06/15 09:53:33;;;;;;;6.82;4.40;;;28.20;7.60;;;;;;5011543;28;20210;-89
2023/06/15 09:56:01;;;;;;;5.05;4.65;;;28.10;6.10;;;;;;5012330;28;20652;-88
2023/06/15 09:58:29;;;;;;;7.00;4.75;;;28.10;6.10;;;;;;5015053;28;20643;-87
2023/06/15 10:01:02;;;;;;;5.50;4.47;;;28.60;6.30;;;;;;5015617;28;20702;-87
2023/06/15 10:03:31;;;;;;;5.20;4.70;;;27.90;7.70;;;;;;5015855;28;20223;-88
2023/06/15 10:06:02;;;;;;;9.07;4.85;;;27.70;9.50;;;;;;5014995;28;20328;-86
2023/06/15 10:08:35;;;;;;;4.45;4.10;;;27.80;8.40;;;;;;5015398;28;20199;-86
2023/06/15 10:11:02;;;;;;;7.68;4.47;;;29.80;2.70;;;;;;5003512;28;20191;-87
2023/06/15 10:13:34;;;;;;;4.63;4.20;;;31.20;1.40;;;;;;5013380;28;20661;-87
2023/06/15 10:16:04;;;;;;;4.07;3.78;;;31.00;1.30;;;;;;5008549;28;20194;-87
2023/06/15 10:18:33;;;;;;;4.22;3.80;;;31.50;1.00;;;;;;5006668;28;20222;-87
2023/06/15 10:21:15;;;;;;;6.13;3.90;;;31.20;1.00;;;;;;5017671;28;20198;-87
2023/06/15 10:23:44;;;;;;;6.50;3.90;;;30.60;1.00;;;;;;5009441;28;20206;-87
2023/06/15 10:26:11;;;;;;;4.82;3.85;;;30.00;1.20;;;;;;5012286;28;20581;-86
2023/06/15 10:28:44;;;;;;;4.30;3.65;;;29.10;3.50;;;;;;5008994;28;20201;-88
2023/06/15 10:31:20;;;;;;;4.97;4.50;;;27.90;5.00;;;;;;5019867;28;20194;-87
2023/06/15 10:34:06;;;;;;;6.07;4.05;;;26.60;6.60;;;;;;5007972;28;20197;-89
2023/06/15 10:36:43;;;;;;;7.65;4.10;;;25.90;8.70;;;;;;5003555;28;20281;-87
2023/06/15 10:39:17;;;;;;;5.60;4.10;;;25.20;9.50;;;;;;4999963;28;21220;-85
2023/06/15 10:41:44;;;;;;;5.50;3.90;;;24.60;10.50;;;;;;4993867;28;20198;-86
2023/06/15 10:44:15;;;;;;;9.23;3.83;;;24.00;10.90;;;;;;4986117;28;20191;-84
2023/06/15 10:46:43;;;;;;;8.57;4.05;;;23.50;11.20;;;;;;5007846;28;20202;-85
2023/06/15 10:49:11;;;;;;;8.63;3.90;;;23.20;12.50;;;;;;5005689;28;20226;-84
2023/06/15 10:51:42;;;;;;;9.32;4.45;;;23.10;13.00;;;;;;5011035;28;20202;-84
2023/06/15 10:54:22;;;;;;;7.00;4.47;;;22.90;12.90;;;;;;4998119;28;20206;-84
2023/06/15 10:56:50;;;;;;;6.25;4.22;;;22.70;12.70;;;;;;5011738;28;20264;-87
2023/06/15 10:59:38;;;;;;;8.48;3.90;;;22.60;12.60;;;;;;5009306;28;20257;-84
2023/06/15 11:02:45;;;;;;;4.78;4.00;;;22.40;13.10;;;;;;5006113;28;20627;-85
2023/06/15 11:05:14;;;;;;;4.25;3.47;;;22.50;13.30;;;;;;5000621;28;20194;-85
2023/06/15 11:07:43;;;;;;;4.28;3.58;;;22.70;15.30;;;;;;5002719;28;20561;-81
2023/06/15 11:10:15;;;;;;;6.85;3.63;;;22.70;14.90;;;;;;5008051;28;20274;-84
2023/06/15 11:12:44;;;;;;;6.60;4.25;;;22.80;14.30;;;;;;5001707;28;20210;-85
2023/06/15 11:15:14;;;;;;;6.53;4.03;;;23.00;14.90;;;;;;4987060;28;20203;-78
2023/06/15 11:17:54;;;;;;;6.95;4.00;;;23.20;13.00;;;;;;5006205;28;20215;-77
2023/06/15 11:21:01;;;;;;;6.93;3.97;;;23.50;13.20;;;;;;5006963;28;20242;-81
2023/06/15 11:23:34;;;;;;;6.10;3.53;;;24.20;13.70;;;;;;4992217;28;20211;-79
2023/06/15 11:26:02;;;;;;;4.80;3.60;;;24.90;14.00;;;;;;5006569;28;20648;-80
2023/06/15 11:28:34;;;;;;;4.93;3.20;;;25.30;9.30;;;;;;5005544;28;20207;-83
2023/06/15 11:31:02;;;;;;;6.72;3.63;;;25.50;8.70;;;;;;5008993;28;20221;-88
2023/06/15 11:33:30;;;;;;;3.55;3.25;;;25.60;8.50;;;;;;4999678;28;20214;-86
2023/06/15 11:36:03;;;;;;;3.58;3.28;;;25.50;8.70;;;;;;5003959;28;20201;-91
2023/06/15 11:38:31;;;;;;;5.22;3.30;;;25.70;6.90;;;;;;5004367;28;20634;-88
2023/06/15 11:41:02;;;;;;;6.68;3.35;;;25.50;7.80;;;;;;5002666;28;20206;-88
2023/06/15 11:43:35;;;;;;;3.95;3.15;;;25.40;8.10;;;;;;5001355;28;20211;-84
2023/06/15 11:46:02;;;;;;;4.70;3.55;;;25.50;7.00;;;;;;4994744;28;20208;-87
2023/06/15 11:48:29;;;;;;;4.35;3.05;;;25.50;7.80;;;;;;5011325;28;20203;-86
2023/06/15 11:50:58;;;;;;;7.55;3.35;;;25.80;4.90;;;;;;4973417;28;20219;-88
2023/06/15 11:53:26;;;;;;;4.75;3.38;;;25.80;4.90;;;;;;5009609;28;20207;-85
2023/06/15 11:55:53;;;;;;;7.15;3.30;;;25.00;6.90;;;;;;5009898;28;20615;-89
2023/06/15 11:58:21;;;;;;;5.00;3.58;;;24.70;8.40;;;;;;4984555;28;20715;-87
2023/06/15 12:00:48;;;;;;;3.75;3.40;;;24.30;9.30;;;;;;4989426;28;20195;-87
2023/06/15 12:03:15;;;;;;;3.70;3.40;;;23.90;9.30;;;;;;5005537;28;20203;-86
2023/06/15 12:05:42;;;;;;;4.57;3.60;;;23.90;10.10;;;;;;4984586;28;20200;-88
2023/06/15 12:08:12;;;;;;;4.78;3.58;;;23.90;10.10;;;;;;5008361;28;20199;-87
2023/06/15 12:10:39;;;;;;;3.92;3.35;;;24.00;9.20;;;;;;5013254;28;20234;-86
2023/06/15 12:13:12;;;;;;;5.13;3.58;;;24.10;9.20;;;;;;4994023;28;20237;-85
2023/06/15 12:15:40;;;;;;;3.65;3.22;;;24.20;9.20;;;;;;5007459;28;20206;-88
2023/06/15 12:18:09;;;;;;;8.32;3.95;;;24.00;10.70;;;;;;5009422;28;20277;-87
2023/06/15 12:20:37;;;;;;;10.27;4.07;;;23.70;11.40;;;;;;4989531;28;20226;-90
2023/06/15 12:23:05;;;;;;;7.00;3.90;;;23.40;13.20;;;;;;5015542;28;20248;-88
2023/06/15 12:25:44;;;;;;;5.32;3.58;;;23.30;13.10;;;;;;5003768;28;20200;-89
2023/06/15 12:28:15;;;;;;;5.47;3.90;;;23.00;12.90;;;;;;5002592;28;20195;-84
2023/06/15 12:30:43;;;;;;;10.43;4.03;;;22.80;13.70;;;;;;5011541;28;20219;-87
2023/06/15 12:33:25;;;;;;;8.57;4.50;;;22.60;12.60;;;;;;4987507;28;20671;-86
2023/06/15 12:35:54;;;;;;;8.32;4.13;;;22.40;14.10;;;;;;5009481;28;20613;-84
2023/06/15 12:38:22;;;;;;;9.15;4.07;;;22.50;14.90;;;;;;5011488;28;20209;-85
2023/06/15 12:40:52;;;;;;;5.93;3.72;;;22.30;14.50;;;;;;4993709;28;20204;-87
2023/06/15 12:43:20;;;;;;;7.57;3.72;;;22.30;14.50;;;;;;5014885;28;20206;-86
2023/06/15 12:45:47;;;;;;;5.20;3.78;;;22.40;14.70;;;;;;4993963;28;20563;-86
2023/06/15 12:48:14;;;;;;;7.43;4.03;;;22.50;14.90;;;;;;5016475;28;20202;-85
2023/06/15 12:50:41;;;;;;;8.48;4.30;;;22.80;14.60;;;;;;5011595;28;20226;-87
2023/06/15 12:53:08;;;;;;;6.55;3.95;;;23.00;15.70;;;;;;4989668;28;20214;-90
2023/06/15 12:55:36;;;;;;;6.13;4.10;;;22.90;14.10;;;;;;5011201;28;20620;-90
2023/06/15 12:58:05;;;;;;;10.25;3.85;;;23.00;13.00;;;;;;4999384;28;20206;-89
2023/06/15 13:00:32;;;;;;;7.97;3.65;;;23.30;13.10;;;;;;5003885;28;20283;-89
2023/06/15 13:03:05;;;;;;;6.68;4.07;;;23.50;13.20;;;;;;4997267;28;20229;-88
2023/06/15 13:05:32;;;;;;;7.60;3.88;;;23.80;13.40;;;;;;5004775;28;20222;-89